Time;durP1;ratioP1;P1;durP2;ratioP2;P2;SDS_P1;SDS_P2;PMS_P1;PMS_P2;Temp;Humidity;BMP_temperature;BMP_pressure;BME280_temperature;BME280_humidity;BME280_pressure;Samples;Min_cycle;Max_cycle;Signal;HPM_P1;HPM_P2
2023/07/25 00:01:40;;;;;;;2.70;2.13;;;;;;;21.07;59.38;95750.34;10536059;28;20032;-28
2023/07/25 00:06:41;;;;;;;2.77;1.17;;;;;;;21.07;59.76;95752.06;10535855;28;20016;-30
2023/07/25 00:11:41;;;;;;;5.17;1.63;;;;;;;21.07;59.99;95745.25;10539578;28;20028;-28
2023/07/25 00:16:41;;;;;;;4.67;1.97;;;;;;;21.11;61.81;95739.22;10532832;28;20016;-29
2023/07/25 00:21:42;;;;;;;4.63;1.90;;;;;;;21.21;61.68;95735.56;10535209;28;20088;-29
2023/07/25 00:26:42;;;;;;;3.60;1.80;;;;;;;21.17;61.37;95749.25;10530711;28;20028;-28
2023/07/25 00:31:43;;;;;;;2.28;1.60;;;;;;;21.12;61.17;95753.63;10534972;28;20059;-29
2023/07/25 00:36:43;;;;;;;2.17;1.77;;;;;;;21.08;61.65;95746.09;10533916;28;20028;-29
2023/07/25 00:41:46;;;;;;;7.63;1.70;;;;;;;21.05;60.58;95744.47;10515337;28;20798;-28
2023/07/25 00:46:48;;;;;;;2.42;1.88;;;;;;;21.04;60.02;95740.25;10534048;28;20039;-29
2023/07/25 00:51:49;;;;;;;1.50;1.23;;;;;;;21.03;60.80;95741.13;10532839;28;20177;-30
2023/07/25 00:56:50;;;;;;;2.17;1.63;;;;;;;21.01;61.33;95735.25;10516096;28;20497;-30
2023/07/25 01:01:50;;;;;;;3.10;1.60;;;;;;;21.01;60.12;95720.00;10511398;28;20046;-29
2023/07/25 01:06:52;;;;;;;3.30;1.80;;;;;;;21.10;61.47;95721.44;10532738;28;20052;-29
2023/07/25 01:11:52;;;;;;;4.70;2.22;;;;;;;21.18;61.94;95702.56;10506627;28;20108;-28
2023/07/25 01:16:53;;;;;;;5.63;1.50;;;;;;;21.13;61.18;95699.28;10521206;28;20104;-29
2023/07/25 01:21:54;;;;;;;3.08;2.58;;;;;;;21.07;60.12;95685.91;10511795;28;20024;-29
2023/07/25 01:26:55;;;;;;;4.80;2.00;;;;;;;21.01;61.24;95689.44;10514446;28;20104;-29
2023/07/25 01:31:56;;;;;;;2.38;1.63;;;;;;;21.01;61.08;95676.72;10510790;28;20509;-29
2023/07/25 01:36:56;;;;;;;4.30;1.87;;;;;;;20.99;60.59;95675.91;10532517;28;20024;-29
2023/07/25 01:41:56;;;;;;;3.25;1.50;;;;;;;20.96;60.78;95670.09;10531843;28;20238;-30
2023/07/25 01:46:57;;;;;;;3.30;1.90;;;;;;;20.95;60.98;95653.13;10517368;28;20028;-28
2023/07/25 01:51:57;;;;;;;3.05;1.52;;;;;;;20.95;60.55;95659.06;10531548;28;20085;-29
2023/07/25 01:56:58;;;;;;;5.10;2.00;;;;;;;20.98;60.87;95647.97;10517528;28;20032;-28
2023/07/25 02:01:58;;;;;;;1.67;1.40;;;;;;;21.02;61.14;95647.84;10516104;28;20081;-29
2023/07/25 02:06:58;;;;;;;4.23;2.13;;;;;;;21.00;60.93;95641.97;10531021;28;20020;-28
2023/07/25 02:12:00;;;;;;;2.80;1.50;;;;;;;20.97;59.99;95636.97;10517276;28;20501;-28
2023/07/25 02:17:00;;;;;;;5.18;1.77;;;;;;;20.93;59.69;95617.56;10511109;28;20032;-28
2023/07/25 02:22:01;;;;;;;3.17;1.63;;;;;;;20.95;59.56;95623.44;10531115;28;20024;-28
2023/07/25 02:27:02;;;;;;;1.95;1.40;;;;;;;20.92;59.47;95618.44;10527738;28;20032;-29
2023/07/25 02:32:03;;;;;;;1.83;1.50;;;;;;;20.93;59.58;95604.84;10533546;28;20410;-29
2023/07/25 02:37:04;;;;;;;4.03;1.80;;;;;;;20.93;59.53;95597.22;10533158;28;20034;-28
2023/07/25 02:42:08;;;;;;;2.95;1.85;;;;;;;20.99;60.38;95597.03;10506578;28;20134;-28
2023/07/25 02:47:08;;;;;;;4.63;1.80;;;;;;;21.05;60.56;95594.31;10530644;28;20032;-29
2023/07/25 02:52:09;;;;;;;4.07;1.75;;;;;;;21.06;60.32;95577.34;10531023;28;20563;-29
2023/07/25 02:57:10;;;;;;;5.50;1.60;;;;;;;21.01;59.86;95600.38;10515263;28;20413;-30
2023/07/25 03:02:11;;;;;;;2.75;1.30;;;;;;;20.97;59.76;95600.50;10531119;28;20036;-29
2023/07/25 03:07:11;;;;;;;6.20;1.52;;;;;;;20.95;59.65;95602.25;10518563;28;20031;-29
2023/07/25 03:12:11;;;;;;;3.10;1.63;;;;;;;20.96;59.62;95599.66;10538030;28;20032;-29
2023/07/25 03:17:12;;;;;;;2.27;1.80;;;;;;;20.94;58.93;95591.25;10517461;28;20414;-29
2023/07/25 03:22:12;;;;;;;4.43;1.47;;;;;;;20.95;59.42;95581.88;10534585;28;20375;-31
2023/07/25 03:27:12;;;;;;;2.93;1.50;;;;;;;20.94;59.76;95585.31;10518752;28;20148;-29
2023/07/25 03:32:13;;;;;;;2.63;1.58;;;;;;;21.01;60.47;95597.84;10517119;28;20039;-29
2023/07/25 03:37:13;;;;;;;2.47;1.70;;;;;;;21.04;60.30;95599.47;10536281;28;20039;-29
2023/07/25 03:42:14;;;;;;;1.93;1.73;;;;;;;20.99;60.10;95619.94;10518502;28;20632;-29
2023/07/25 03:47:14;;;;;;;3.37;1.60;;;;;;;20.89;60.59;95617.69;10516757;28;20032;-28
2023/07/25 03:52:14;;;;;;;2.67;1.97;;;;;;;21.04;60.98;95618.09;10521343;28;20058;-29
2023/07/25 03:57:15;;;;;;;4.17;2.10;;;;;;;20.96;60.71;95616.66;10518515;28;20433;-29
2023/07/25 04:02:15;;;;;;;3.97;2.25;;;;;;;20.93;60.70;95620.13;10534528;28;20035;-29
2023/07/25 04:07:15;;;;;;;4.57;2.00;;;;;;;20.91;60.79;95616.78;10541113;28;20612;-28
2023/07/25 04:12:16;;;;;;;5.17;2.60;;;;;;;20.81;61.43;95619.56;10495331;28;20035;-29
2023/07/25 04:17:16;;;;;;;4.07;2.20;;;;;;;20.86;61.42;95627.94;10541396;28;20032;-29
2023/07/25 04:22:17;;;;;;;3.10;2.38;;;;;;;20.90;61.87;95639.72;10527946;28;20290;-29
2023/07/25 04:27:17;;;;;;;3.33;2.73;;;;;;;20.89;61.99;95646.50;10512538;28;20036;-29
2023/07/25 04:32:20;;;;;;;3.72;2.05;;;;;;;20.91;62.13;95651.56;10503051;28;20290;-29
2023/07/25 04:37:20;;;;;;;7.35;2.80;;;;;;;20.88;62.89;95661.81;10506073;28;20036;-29
2023/07/25 04:42:20;;;;;;;3.47;1.70;;;;;;;20.89;60.81;95661.75;10530864;28;20402;-28
2023/07/25 04:47:21;;;;;;;2.90;1.83;;;;;;;20.91;61.12;95664.28;10529108;28;20032;-30
2023/07/25 04:52:21;;;;;;;5.17;2.80;;;;;;;20.90;61.46;95668.53;10530744;28;20410;-29
2023/07/25 04:57:22;;;;;;;3.60;1.90;;;;;;;20.91;60.10;95670.22;10535826;28;20376;-29
2023/07/25 05:02:22;;;;;;;4.13;2.10;;;;;;;20.76;61.19;95669.72;10532047;28;20044;-28
2023/07/25 05:07:23;;;;;;;5.65;3.05;;;;;;;20.90;62.38;95680.44;10524512;28;20103;-29
2023/07/25 05:12:23;;;;;;;4.70;1.55;;;;;;;20.99;62.58;95677.63;10528552;28;20552;-29
2023/07/25 05:17:24;;;;;;;3.30;2.30;;;;;;;20.92;63.42;95674.44;10542197;28;20088;-28
2023/07/25 05:22:24;;;;;;;3.73;1.87;;;;;;;20.83;64.05;95669.53;10535307;28;20464;-29
2023/07/25 05:27:24;;;;;;;5.87;2.23;;;;;;;20.49;65.62;95667.88;10524746;28;20031;-29
2023/07/25 05:32:25;;;;;;;5.20;2.87;;;;;;;20.39;65.17;95667.25;10538505;28;20039;-29
2023/07/25 05:37:36;;;;;;;8.70;2.60;;;;;;;20.43;65.21;95651.06;10524502;28;20406;-28
2023/07/25 05:42:37;;;;;;;3.75;2.33;;;;;;;20.54;65.24;95655.91;10542709;28;20517;-29
2023/07/25 05:47:37;;;;;;;5.97;2.43;;;;;;;20.56;65.49;95675.31;10538067;28;20038;-30
2023/07/25 05:52:37;;;;;;;4.13;2.43;;;;;;;20.57;65.68;95674.44;10525701;28;20102;-29
2023/07/25 05:57:38;;;;;;;4.60;2.13;;;;;;;20.64;66.15;95677.69;10533338;28;20043;-29
2023/07/25 06:02:38;;;;;;;7.37;2.57;;;;;;;20.68;66.58;95680.09;10521882;28;20075;-29
2023/07/25 06:07:38;;;;;;;2.93;2.60;;;;;;;20.68;66.22;95679.25;10524483;28;20024;-29
2023/07/25 06:12:39;;;;;;;5.73;2.70;;;;;;;20.62;66.01;95685.34;10520628;28;20033;-29
2023/07/25 06:17:39;;;;;;;3.57;2.40;;;;;;;20.58;66.68;95688.84;10528935;28;20630;-29
2023/07/25 06:22:40;;;;;;;4.43;3.13;;;;;;;20.58;66.05;95683.75;10533055;28;20028;-29
2023/07/25 06:27:40;;;;;;;3.70;2.17;;;;;;;20.57;66.21;95692.22;10524987;28;20064;-28
2023/07/25 06:32:41;;;;;;;2.47;2.10;;;;;;;20.55;66.33;95688.91;10523844;28;20379;-28
2023/07/25 06:37:41;;;;;;;6.53;2.50;;;;;;;20.51;66.37;95677.13;10530567;28;20119;-29
2023/07/25 06:42:44;;;;;;;3.33;2.10;;;;;;;20.54;66.13;95682.13;10531676;28;20480;-28
2023/07/25 06:47:46;;;;;;;3.50;2.13;;;;;;;20.64;66.32;95663.22;10518589;28;20551;-29
2023/07/25 06:52:47;;;;;;;3.87;2.10;;;;;;;20.70;66.78;95670.72;10536803;28;20085;-29
2023/07/25 06:57:47;;;;;;;4.50;2.30;;;;;;;20.64;66.47;95663.22;10537770;28;20024;-29
2023/07/25 07:02:50;;;;;;;5.27;2.07;;;;;;;20.73;66.14;95662.19;10535172;28;20303;-29
2023/07/25 07:07:50;;;;;;;3.92;2.20;;;;;;;20.73;65.00;95657.91;10525654;28;20034;-29
2023/07/25 07:12:53;;;;;;;2.00;1.30;;;;;;;20.78;63.87;95656.09;10538503;28;20115;-30
2023/07/25 07:17:53;;;;;;;3.28;1.77;;;;;;;20.83;63.85;95649.19;10536968;28;20035;-29
2023/07/25 07:22:54;;;;;;;10.90;1.87;;;;;;;20.88;62.72;95646.56;10533560;28;20496;-29
2023/07/25 07:27:54;;;;;;;2.40;1.30;;;;;;;20.92;62.21;95659.16;10551550;28;20363;-29
2023/07/25 07:32:56;;;;;;;5.87;1.97;;;;;;;20.86;61.76;95654.22;10536823;28;20024;-30
2023/07/25 07:37:57;;;;;;;2.92;1.35;;;;;;;20.92;60.74;95648.97;10532269;28;20042;-28
2023/07/25 07:42:57;;;;;;;3.85;1.42;;;;;;;20.91;60.42;95652.41;10536582;28;20043;-28
2023/07/25 07:48:00;;;;;;;3.13;1.70;;;;;;;20.92;59.95;95655.75;10534980;28;20028;-29
2023/07/25 07:53:00;;;;;;;2.88;1.52;;;;;;;20.84;59.37;95648.31;10536531;28;20118;-29
2023/07/25 07:58:02;;;;;;;2.57;1.30;;;;;;;20.86;59.43;95659.31;10543157;28;20391;-29
2023/07/25 08:03:02;;;;;;;3.13;1.60;;;;;;;20.86;57.69;95653.38;10541386;28;20128;-29
2023/07/25 08:08:03;;;;;;;3.30;1.48;;;;;;;20.86;58.58;95656.75;10534511;28;20048;-28
2023/07/25 08:13:03;;;;;;;3.65;1.52;;;;;;;20.85;59.50;95649.13;10536141;28;20020;-29
2023/07/25 08:18:03;;;;;;;4.77;1.30;;;;;;;20.83;58.38;95649.19;10531416;28;20036;-29
2023/07/25 08:23:04;;;;;;;5.60;1.80;;;;;;;20.86;57.90;95640.66;10536312;28;20046;-29
2023/07/25 08:28:05;;;;;;;5.57;3.20;;;;;;;20.91;57.14;95647.31;10531107;28;20020;-29
2023/07/25 08:33:05;;;;;;;4.38;1.80;;;;;;;20.93;56.73;95645.56;10538175;28;20031;-28
2023/07/25 08:38:05;;;;;;;4.47;1.70;;;;;;;20.93;57.95;95654.88;10530804;28;20047;-29
2023/07/25 08:43:09;;;;;;;6.47;1.83;;;;;;;20.91;57.83;95657.50;10545271;28;20119;-29
2023/07/25 08:48:12;;;;;;;6.57;2.00;;;;;;;20.94;58.26;95646.38;10536207;28;20063;-28
2023/07/25 08:53:14;;;;;;;6.88;1.77;;;;;;;20.95;58.26;95664.16;10550901;28;20409;-28
2023/07/25 08:58:15;;;;;;;6.88;2.03;;;;;;;20.92;58.55;95664.25;10532521;28;20105;-28
2023/07/25 09:03:16;;;;;;;2.85;2.33;;;;;;;20.91;58.47;95672.75;10541845;28;20118;-29
2023/07/25 09:08:17;;;;;;;3.00;1.55;;;;;;;20.90;58.87;95695.69;10534380;28;20111;-28
2023/07/25 09:13:19;;;;;;;4.93;1.80;;;;;;;20.93;58.99;95691.34;10526065;28;20032;-29
2023/07/25 09:18:20;;;;;;;7.03;2.20;;;;;;;21.02;59.51;95691.13;10543252;28;20039;-28
2023/07/25 09:23:21;;;;;;;3.80;2.13;;;;;;;21.03;59.29;95697.88;10531420;28;20096;-28
2023/07/25 09:28:21;;;;;;;7.32;2.03;;;;;;;20.96;60.66;95686.19;10532926;28;20971;-27
2023/07/25 09:33:26;;;;;;;2.47;1.23;;;;;;;20.84;63.28;95695.81;10548908;28;20040;-30
2023/07/25 09:38:27;;;;;;;1.55;1.10;;;;;;;20.88;59.97;95695.72;10535494;28;20691;-29
2023/07/25 09:43:28;;;;;;;7.33;1.40;;;;;;;20.88;59.53;95683.00;10532341;28;20054;-29
2023/07/25 09:48:28;;;;;;;2.22;1.40;;;;;;;20.88;59.48;95683.00;10547762;28;20050;-29
2023/07/25 09:53:29;;;;;;;2.27;1.43;;;;;;;20.87;59.24;95686.41;10526079;28;20081;-29
2023/07/25 09:58:31;;;;;;;2.22;1.45;;;;;;;20.86;59.03;95691.53;10531935;28;20039;-29
2023/07/25 10:03:32;;;;;;;4.65;2.55;;;;;;;20.97;60.90;95692.94;10527827;28;20032;-28
2023/07/25 10:08:33;;;;;;;3.85;1.48;;;;;;;21.06;60.52;95691.88;10539119;28;20047;-28
2023/07/25 10:13:34;;;;;;;3.78;1.70;;;;;;;21.03;59.96;95674.97;10538336;28;20043;-29
2023/07/25 10:18:35;;;;;;;3.22;1.45;;;;;;;20.98;59.26;95678.50;10532642;28;20051;-31
2023/07/25 10:23:35;;;;;;;2.22;1.20;;;;;;;20.92;59.21;95666.78;10541102;28;20028;-28
2023/07/25 10:28:36;;;;;;;4.88;1.75;;;;;;;20.91;59.07;95667.66;10540821;28;20032;-28
2023/07/25 10:33:38;;;;;;;4.13;1.45;;;;;;;20.91;59.09;95680.41;10539857;28;20028;-29
2023/07/25 10:38:40;;;;;;;2.03;1.30;;;;;;;20.89;59.06;95674.47;10547245;28;20048;-29
2023/07/25 10:43:52;;;;;;;1.52;0.88;;;;;;;20.89;59.04;95674.47;10540430;28;20111;-28
2023/07/25 10:48:54;;;;;;;2.63;1.30;;;;;;;20.87;59.25;95668.63;10537820;28;20559;-28
2023/07/25 10:54:16;;;;;;;4.85;2.08;;;;;;;21.05;60.29;95664.75;10539741;28;20506;-29
2023/07/25 10:59:17;;;;;;;3.63;1.17;;;;;;;21.07;60.17;95668.91;10530350;28;20041;-29
2023/07/25 11:04:20;;;;;;;2.70;1.20;;;;;;;21.03;59.42;95662.25;10536818;28;20032;-28
2023/07/25 11:09:21;;;;;;;1.55;1.17;;;;;;;20.96;59.28;95660.72;10530300;28;20046;-29
2023/07/25 11:14:22;;;;;;;2.33;1.23;;;;;;;20.81;59.09;95640.75;10531746;28;20089;-29
2023/07/25 11:19:26;;;;;;;1.40;1.20;;;;;;;20.92;59.22;95673.56;10533294;28;20036;-29
2023/07/25 11:24:27;;;;;;;1.70;1.15;;;;;;;20.90;59.03;95671.06;10527766;28;20068;-29
2023/07/25 11:29:27;;;;;;;1.63;1.07;;;;;;;20.90;58.99;95680.44;10524967;28;20114;-29
2023/07/25 11:34:28;;;;;;;1.65;1.00;;;;;;;20.89;59.01;95673.66;10528509;28;20063;-28
2023/07/25 11:39:28;;;;;;;2.70;1.23;;;;;;;20.97;59.60;95667.50;10527860;28;20126;-29
2023/07/25 11:44:29;;;;;;;1.88;1.20;;;;;;;21.07;59.84;95668.91;10533101;28;20048;-29
2023/07/25 11:49:29;;;;;;;3.53;1.75;;;;;;;21.01;59.73;95669.09;10525952;28;20097;-29
2023/07/25 11:54:31;;;;;;;1.20;1.02;;;;;;;21.03;59.27;95687.69;10526564;28;20036;-29
2023/07/25 11:59:38;;;;;;;2.42;1.30;;;;;;;20.96;58.89;95706.53;10526561;28;20028;-28
2023/07/25 12:04:45;;;;;;;1.70;0.90;;;;;;;20.95;59.07;95714.19;10526918;28;20124;-27
2023/07/25 12:09:50;;;;;;;1.30;1.00;;;;;;;20.92;59.05;95719.38;10495002;28;1157686;-28
2023/07/25 12:14:59;;;;;;;2.20;1.17;;;;;;;20.90;59.00;95737.22;10534908;28;20141;-28
2023/07/25 12:20:00;;;;;;;1.95;0.90;;;;;;;20.89;59.31;95730.47;10533032;28;20032;-29
2023/07/25 12:25:05;;;;;;;1.67;1.37;;;;;;;20.89;59.03;95724.56;10530511;28;20031;-28
2023/07/25 12:30:06;;;;;;;2.33;1.20;;;;;;;21.01;60.12;95729.31;10528643;28;20040;-30
2023/07/25 12:35:08;;;;;;;2.00;1.30;;;;;;;21.08;59.75;95716.41;10526826;28;20036;-29
2023/07/25 12:40:09;;;;;;;2.00;1.08;;;;;;;21.07;59.44;95712.16;10528770;28;20093;-27
2023/07/25 12:45:09;;;;;;;1.27;0.98;;;;;;;21.00;59.05;95718.31;10545485;28;20092;-29
2023/07/25 12:50:10;;;;;;;1.63;0.85;;;;;;;20.95;58.95;95709.97;10497951;28;20422;-30
2023/07/25 12:55:10;;;;;;;1.70;0.90;;;;;;;20.92;59.05;95697.31;10531236;28;21135;-28
2023/07/25 13:00:11;;;;;;;1.43;0.70;;;;;;;20.90;58.94;95701.59;10527740;28;20137;-29
2023/07/25 13:05:12;;;;;;;1.65;1.13;;;;;;;20.91;58.87;95707.53;10520406;28;20063;-28
2023/07/25 13:10:12;;;;;;;0.80;0.80;;;;;;;20.91;58.85;95707.53;10533230;28;20032;-28
2023/07/25 13:15:12;;;;;;;1.67;1.00;;;;;;;20.90;58.81;95698.22;10524411;28;20074;-29
2023/07/25 13:20:13;;;;;;;4.43;1.10;;;;;;;21.06;59.92;95707.97;10530969;28;20047;-28
2023/07/25 13:25:13;;;;;;;2.23;1.20;;;;;;;21.11;60.23;95718.88;10527566;28;20035;-28
2023/07/25 13:30:13;;;;;;;2.30;1.00;;;;;;;20.94;59.49;95693.03;10530366;28;20047;-29
2023/07/25 13:35:14;;;;;;;1.80;1.30;;;;;;;20.99;58.92;95711.53;10530692;28;20294;-29
2023/07/25 13:40:14;;;;;;;1.83;0.90;;;;;;;20.92;59.04;95704.97;10524775;28;20036;-28
2023/07/25 13:45:15;;;;;;;1.02;0.90;;;;;;;20.92;59.04;95707.50;10528052;28;20036;-30
2023/07/25 13:50:15;;;;;;;1.57;0.70;;;;;;;20.92;58.91;95684.59;10527190;28;20028;-29
2023/07/25 13:55:15;;;;;;;1.57;0.63;;;;;;;20.90;58.90;95691.41;10520608;28;20110;-29
2023/07/25 14:00:17;;;;;;;2.97;0.90;;;;;;;20.90;58.97;95688.06;10532810;28;20036;-29
2023/07/25 14:05:18;;;;;;;3.15;1.10;;;;;;;20.96;60.07;95686.19;10532553;28;20096;-29
2023/07/25 14:10:18;;;;;;;0.80;0.80;;;;;;;21.10;60.35;95691.75;10524648;28;20031;-29
2023/07/25 14:15:19;;;;;;;3.97;2.10;;;;;;;21.11;60.04;95701.06;10529413;28;20036;-29
2023/07/25 14:20:19;;;;;;;1.10;0.80;;;;;;;21.07;59.29;95702.00;10532231;28;20040;-29
2023/07/25 14:25:19;;;;;;;2.10;0.93;;;;;;;20.99;58.90;95719.16;10522710;28;20112;-27
2023/07/25 14:30:20;;;;;;;4.63;1.13;;;;;;;20.95;58.76;95704.03;10523186;28;20043;-27
2023/07/25 14:35:20;;;;;;;1.20;1.00;;;;;;;21.06;59.33;95730.88;10521307;28;20313;-28
2023/07/25 14:40:21;;;;;;;2.38;1.20;;;;;;;21.00;58.95;95722.56;10531723;28;20585;-30
2023/07/25 14:45:21;;;;;;;2.70;1.13;;;;;;;20.96;59.06;95737.06;10527211;28;20036;-29
2023/07/25 14:50:22;;;;;;;3.90;1.15;;;;;;;20.93;58.96;95734.63;10526833;28;20111;-28
2023/07/25 14:55:23;;;;;;;3.13;1.20;;;;;;;21.00;60.20;95733.59;10522974;28;20107;-29
2023/07/25 15:00:25;;;;;;;3.08;0.90;;;;;;;21.16;60.34;95760.31;10526748;28;20510;-28
2023/07/25 15:05:26;;;;;;;1.25;0.85;;;;;;;21.15;59.60;95773.06;10537220;28;20041;-27
2023/07/25 15:10:26;;;;;;;1.10;0.73;;;;;;;21.06;59.21;95780.94;10537994;28;20028;-30
2023/07/25 15:15:27;;;;;;;1.30;0.68;;;;;;;21.00;59.06;95779.41;10538879;28;20032;-28
2023/07/25 15:20:27;;;;;;;3.13;0.97;;;;;;;20.95;59.03;95780.34;10542271;28;20379;-29
2023/07/25 15:25:28;;;;;;;2.00;0.70;;;;;;;20.94;59.05;95788.88;10535569;28;20290;-29
2023/07/25 15:30:30;;;;;;;3.97;0.95;;;;;;;20.93;59.06;95785.50;10528615;28;20677;-29
2023/07/25 15:35:30;;;;;;;0.88;0.63;;;;;;;20.92;58.84;95786.38;10529550;28;20093;-28
2023/07/25 15:40:31;;;;;;;1.27;0.70;;;;;;;20.91;58.83;95794.03;10533537;28;20051;-29
2023/07/25 15:45:34;;;;;;;2.60;1.37;;;;;;;21.05;61.86;95909.91;10530592;28;20039;-30
2023/07/25 15:50:34;;;;;;;3.55;1.10;;;;;;;21.15;61.54;95910.53;10523133;28;20035;-32
2023/07/25 15:55:35;;;;;;;2.15;1.20;;;;;;;21.12;59.96;95908.88;10520106;28;20035;-30
2023/07/25 16:00:35;;;;;;;1.95;1.10;;;;;;;21.04;60.06;95913.31;10530137;28;20039;-29
2023/07/25 16:05:35;;;;;;;3.77;0.90;;;;;;;20.98;59.31;95922.81;10529365;28;20036;-29
2023/07/25 16:10:36;;;;;;;1.00;0.80;;;;;;;20.93;59.01;95925.44;10531092;28;20339;-29
2023/07/25 16:15:36;;;;;;;0.60;0.60;;;;;;;20.92;59.04;95931.41;10518948;28;20032;-29
2023/07/25 16:20:36;;;;;;;5.53;2.10;;;;;;;20.88;60.61;95947.59;10526262;28;20047;-30
2023/07/25 16:25:37;;;;;;;7.93;1.20;;;;;;;20.88;59.05;95947.59;10535001;28;20467;-28
2023/07/25 16:30:38;;;;;;;3.90;0.73;;;;;;;20.89;58.95;95964.53;10525929;28;20413;-28
2023/07/25 16:35:39;;;;;;;9.75;2.40;;;;;;;21.03;61.35;95962.53;10534787;28;20101;-29
2023/07/25 16:40:39;;;;;;;7.13;1.90;;;;;;;21.14;61.51;95973.31;10534843;28;20028;-27
2023/07/25 16:45:39;;;;;;;3.40;1.40;;;;;;;21.10;60.54;95973.41;10516115;28;20028;-29
2023/07/25 16:50:40;;;;;;;2.80;1.53;;;;;;;20.94;59.68;95972.94;10526009;28;20063;-28
2023/07/25 16:55:40;;;;;;;2.37;0.87;;;;;;;20.95;59.01;95984.78;10529916;28;20391;-29
2023/07/25 17:00:40;;;;;;;1.63;0.97;;;;;;;20.92;59.21;95982.31;10532727;28;20058;-29
2023/07/25 17:05:41;;;;;;;3.33;0.80;;;;;;;20.85;59.03;95962.91;10520147;28;20024;-29
2023/07/25 17:10:41;;;;;;;2.10;1.40;;;;;;;20.83;59.79;95979.94;10520036;28;20043;-28
2023/07/25 17:15:42;;;;;;;0.93;0.83;;;;;;;20.86;59.14;95990.06;10512740;28;20105;-28
2023/07/25 17:20:43;;;;;;;5.60;1.20;;;;;;;20.90;59.40;95990.84;10515518;28;20027;-29
2023/07/25 17:25:44;;;;;;;11.83;2.17;;;;;;;21.08;61.46;95996.38;10536115;28;20425;-28
2023/07/25 17:30:44;;;;;;;19.40;2.55;;;;;;;21.16;61.62;96004.69;10531629;28;20290;-29
2023/07/25 17:35:47;;;;;;;8.33;2.93;;;;;;;21.11;59.70;96001.41;10524285;28;20036;-29
2023/07/25 17:40:47;;;;;;;5.72;1.45;;;;;;;21.07;59.03;96009.13;10518593;28;20390;-28
2023/07/25 17:45:48;;;;;;;5.43;1.13;;;;;;;21.08;58.72;96006.56;10530452;28;20035;-29
2023/07/25 17:50:48;;;;;;;2.73;1.00;;;;;;;21.09;58.82;96015.03;10528605;28;20659;-28
2023/07/25 17:55:48;;;;;;;11.93;1.27;;;;;;;21.10;58.87;96019.25;10523396;28;20444;-28
2023/07/25 18:00:49;;;;;;;3.57;1.03;;;;;;;21.09;58.60;96028.59;10529484;28;20362;-29
2023/07/25 18:05:49;;;;;;;5.28;0.98;;;;;;;21.08;58.50;96036.25;10518022;28;20343;-27
2023/07/25 18:10:50;;;;;;;11.53;2.10;;;;;;;21.09;59.50;96027.75;10548261;28;20058;-29
2023/07/25 18:15:50;;;;;;;7.80;1.48;;;;;;;21.20;62.44;96041.94;10532108;28;20494;-28
2023/07/25 18:20:51;;;;;;;5.10;1.73;;;;;;;21.22;62.15;96045.28;10519191;28;20020;-29
2023/07/25 18:25:51;;;;;;;4.70;1.67;;;;;;;21.17;59.13;96054.72;10523908;28;20034;-31
2023/07/25 18:30:52;;;;;;;2.45;0.77;;;;;;;21.13;58.90;96067.56;10519922;28;20032;-30
2023/07/25 18:35:52;;;;;;;5.03;1.40;;;;;;;21.09;58.83;96074.41;10532664;28;20058;-29
2023/07/25 18:40:52;;;;;;;3.25;1.65;;;;;;;21.06;58.83;96082.09;10532272;28;20114;-30
2023/07/25 18:45:53;;;;;;;1.17;0.90;;;;;;;21.06;58.71;96094.81;10535148;28;20024;-28
2023/07/25 18:50:53;;;;;;;3.10;1.00;;;;;;;21.05;58.74;96100.78;10534980;28;20036;-29
2023/07/25 18:55:53;;;;;;;3.20;0.90;;;;;;;21.05;58.66;96110.16;10523238;28;20076;-30
2023/07/25 19:00:54;;;;;;;5.33;1.30;;;;;;;21.09;61.39;96112.59;10533612;28;20032;-29
2023/07/25 19:05:54;;;;;;;3.97;1.70;;;;;;;21.17;61.92;96122.63;10529627;28;20040;-29
2023/07/25 19:10:55;;;;;;;3.60;1.00;;;;;;;21.19;61.62;96116.63;10531672;28;20304;-28
2023/07/25 19:15:55;;;;;;;3.17;1.07;;;;;;;21.13;59.10;96116.75;10543237;28;20553;-28
2023/07/25 19:20:55;;;;;;;4.88;1.05;;;;;;;21.11;58.95;96133.75;10524570;28;20284;-29
2023/07/25 19:25:57;;;;;;;2.97;0.87;;;;;;;21.11;58.71;96143.94;10527741;28;20032;-29
2023/07/25 19:30:58;;;;;;;2.35;1.10;;;;;;;21.10;58.69;96155.00;10543093;28;20173;-29
2023/07/25 19:35:59;;;;;;;5.60;1.05;;;;;;;21.10;58.92;96156.69;10528611;28;20040;-29
2023/07/25 19:40:59;;;;;;;2.20;1.00;;;;;;;21.08;58.95;96166.91;10523971;28;20141;-29
2023/07/25 19:46:03;;;;;;;1.73;1.00;;;;;;;21.07;58.92;96170.31;10533692;28;20032;-30
2023/07/25 19:51:11;;;;;;;4.70;1.33;;;;;;;21.13;60.70;96177.84;10538127;28;20122;-30
2023/07/25 19:56:12;;;;;;;0.70;0.55;;;;;;;20.00;63.40;96179.72;10530116;28;20039;-29
2023/07/25 20:01:12;;;;;;;3.22;0.70;;;;;;;19.59;64.30;96184.53;10536558;28;20039;-28
2023/07/25 20:06:13;;;;;;;2.42;0.40;;;;;;;19.44;64.89;96185.53;10552692;28;20122;-28
2023/07/25 20:11:13;;;;;;;0.40;0.27;;;;;;;19.32;64.79;96195.00;10546812;28;20038;-29
2023/07/25 20:16:14;;;;;;;3.00;0.30;;;;;;;19.17;65.28;96197.69;10547300;28;20027;-29
2023/07/25 20:21:14;;;;;;;0.55;0.40;;;;;;;19.13;65.80;96206.19;10547763;28;20055;-29
2023/07/25 20:26:15;;;;;;;0.40;0.30;;;;;;;19.07;65.83;96196.94;10541175;28;20032;-30
2023/07/25 20:31:16;;;;;;;0.60;0.40;;;;;;;19.08;66.98;96210.50;10549811;28;20031;-28
2023/07/25 20:36:16;;;;;;;0.98;0.30;;;;;;;19.12;66.49;96215.53;10541109;28;20044;-28
2023/07/25 20:41:16;;;;;;;0.93;0.53;;;;;;;19.08;66.25;96223.19;10535123;28;20038;-28
2023/07/25 20:46:17;;;;;;;0.47;0.30;;;;;;;18.96;66.02;96225.81;10527119;28;20032;-29
2023/07/25 20:51:17;;;;;;;0.30;0.30;;;;;;;18.94;66.42;96233.47;10530725;28;20294;-28
2023/07/25 20:56:17;;;;;;;0.77;0.30;;;;;;;18.86;66.45;96224.22;10529836;28;20047;-29
2023/07/25 21:01:18;;;;;;;0.67;0.43;;;;;;;18.90;66.55;96251.22;10527795;28;20501;-29
2023/07/25 21:06:18;;;;;;;1.60;0.60;;;;;;;18.93;66.80;96256.28;10535609;28;20114;-28
2023/07/25 21:11:21;;;;;;;2.22;0.25;;;;;;;18.87;67.08;96256.34;10533127;28;20294;-28
2023/07/25 21:16:22;;;;;;;1.65;0.45;;;;;;;18.87;66.63;96259.75;10528942;28;20081;-27
2023/07/25 21:21:22;;;;;;;8.93;0.97;;;;;;;18.83;66.65;96264.84;10523142;28;20039;-28
2023/07/25 21:26:22;;;;;;;0.40;0.40;;;;;;;18.73;66.61;96265.75;10530595;28;20123;-29
2023/07/25 21:31:23;;;;;;;0.43;0.30;;;;;;;18.71;66.56;96265.78;10530992;28;20032;-28
2023/07/25 21:36:24;;;;;;;1.17;0.40;;;;;;;18.73;66.99;96268.28;10519471;28;20633;-28
2023/07/25 21:41:25;;;;;;;0.50;0.40;;;;;;;18.72;66.70;96274.22;10527764;28;20308;-30
2023/07/25 21:46:26;;;;;;;0.87;0.40;;;;;;;18.74;66.46;96275.91;10531284;28;20452;-29
2023/07/25 21:51:28;;;;;;;0.40;0.38;;;;;;;18.81;66.30;96290.22;10531797;28;20332;-29
2023/07/25 21:56:28;;;;;;;0.35;0.30;;;;;;;18.80;65.85;96292.75;10530197;28;20143;-29
2023/07/25 22:01:28;;;;;;;4.63;0.53;;;;;;;18.78;65.94;96299.53;10521723;28;20066;-28
2023/07/25 22:06:29;;;;;;;1.17;0.70;;;;;;;18.79;65.37;96299.53;10524457;28;20032;-29
2023/07/25 22:11:29;;;;;;;1.27;1.17;;;;;;;18.75;64.86;96304.66;10538338;28;20024;-29
2023/07/25 22:16:30;;;;;;;2.58;1.70;;;;;;;18.54;64.93;96320.84;10536551;28;20063;-29
2023/07/25 22:21:31;;;;;;;1.93;1.70;;;;;;;18.45;64.70;96320.06;10540716;28;20443;-29
2023/07/25 22:26:32;;;;;;;1.00;0.93;;;;;;;18.46;65.29;96321.75;10539234;28;20073;-28
2023/07/25 22:31:36;;;;;;;1.77;1.13;;;;;;;18.35;65.79;96313.38;10539625;28;20097;-28
2023/07/25 22:36:36;;;;;;;0.98;0.90;;;;;;;18.34;65.63;96322.66;10528879;28;20293;-28
2023/07/25 22:41:36;;;;;;;1.00;0.80;;;;;;;18.30;65.87;96330.28;10535760;28;20431;-34
2023/07/25 22:46:37;;;;;;;4.27;1.07;;;;;;;18.29;65.59;96336.16;10538209;28;20030;-29
2023/07/25 22:51:37;;;;;;;0.70;0.50;;;;;;;18.29;66.47;96343.78;10532286;28;20033;-29
2023/07/25 22:56:38;;;;;;;1.73;0.70;;;;;;;18.28;66.62;96352.22;10534579;28;20045;-28
2023/07/25 23:01:38;;;;;;;1.03;0.80;;;;;;;18.26;66.82;96348.88;10530936;28;20398;-28
2023/07/25 23:06:38;;;;;;;1.30;0.80;;;;;;;18.24;67.13;96356.47;10538355;28;20456;-28
2023/07/25 23:11:39;;;;;;;0.93;0.83;;;;;;;18.25;67.30;96362.38;10531048;28;20341;-29
2023/07/25 23:16:39;;;;;;;1.67;1.20;;;;;;;18.25;66.92;96364.91;10531375;28;20128;-29